Time;durP1;ratioP1;P1;durP2;ratioP2;P2;SDS_P1;SDS_P2;PMS_P1;PMS_P2;Temp;Humidity;BMP_temperature;BMP_pressure;BME280_temperature;BME280_humidity;BME280_pressure;Samples;Min_cycle;Max_cycle;Signal;HPM_P1;HPM_P2
2022/02/05 00:01:33;;;;;;;8.57;5.95;;;4.70;65.20;;;;;;5030405;28;20404;-79
2022/02/05 00:03:59;;;;;;;11.80;6.30;;;4.70;66.10;;;;;;5036530;28;20459;-79
2022/02/05 00:06:30;;;;;;;9.37;5.47;;;4.60;67.20;;;;;;5032087;28;20441;-77
2022/02/05 00:09:16;;;;;;;10.88;5.82;;;4.60;67.50;;;;;;5023058;28;20412;-78
2022/02/05 00:20:25;;;;;;;17.00;6.63;;;4.40;68.90;;;;;;5033094;28;20808;-77
2022/02/05 00:39:27;;;;;;;12.68;5.65;;;4.60;66.90;;;;;;5022118;28;20873;-77
2022/02/05 00:42:08;;;;;;;9.18;4.97;;;4.60;67.10;;;;;;5025768;28;20377;-78
2022/02/05 00:44:31;;;;;;;9.85;4.70;;;4.50;67.40;;;;;;4995458;28;20398;-76
2022/02/05 00:46:57;;;;;;;13.05;5.03;;;4.40;68.30;;;;;;5019660;28;20408;-78
2022/02/05 00:49:22;;;;;;;11.93;5.18;;;4.50;67.30;;;;;;5019194;28;20401;-76
2022/02/05 00:51:54;;;;;;;12.47;4.90;;;4.50;66.30;;;;;;5015361;28;20460;-79
2022/02/05 00:54:23;;;;;;;10.73;4.85;;;4.40;67.10;;;;;;4998008;28;20436;-79
2022/02/05 00:57:06;;;;;;;9.23;4.70;;;4.50;66.70;;;;;;5021573;28;20940;-79
2022/02/05 00:59:32;;;;;;;10.00;4.28;;;4.50;66.20;;;;;;5021933;28;20396;-80
2022/02/05 01:01:57;;;;;;;11.13;5.18;;;4.40;67.40;;;;;;5006211;28;20412;-79
2022/02/05 01:04:23;;;;;;;9.38;4.90;;;4.20;69.60;;;;;;5022806;28;20528;-80
2022/02/05 01:06:49;;;;;;;11.82;4.50;;;4.30;68.00;;;;;;5027423;28;20404;-80
2022/02/05 01:09:25;;;;;;;13.10;4.73;;;4.30;66.90;;;;;;5035982;28;20381;-80
2022/02/05 01:11:52;;;;;;;10.57;4.40;;;4.40;66.40;;;;;;5040386;28;20399;-80
2022/02/05 01:14:23;;;;;;;12.05;5.40;;;4.20;68.70;;;;;;5022650;28;20410;-80
2022/02/05 01:16:55;;;;;;;9.55;4.68;;;4.20;68.40;;;;;;5039544;28;20418;-80
2022/02/05 01:21:56;;;;;;;13.23;5.10;;;4.20;68.80;;;;;;5029308;28;20411;-80
2022/02/05 01:24:23;;;;;;;8.80;3.80;;;4.20;68.30;;;;;;5023631;28;20384;-79
2022/02/05 01:26:59;;;;;;;10.82;4.35;;;4.20;68.00;;;;;;5007199;28;20797;-79
2022/02/05 01:31:57;;;;;;;8.25;4.30;;;4.20;69.00;;;;;;5020732;28;20428;-80
2022/02/05 02:06:32;;;;;;;8.10;4.30;;;4.30;66.80;;;;;;5018769;28;20416;-79
2022/02/05 02:19:23;;;;;;;14.70;5.35;;;4.20;67.30;;;;;;5033494;28;20399;-79
2022/02/05 02:22:12;;;;;;;11.43;4.80;;;4.20;67.50;;;;;;5030920;28;20401;-79
2022/02/05 02:27:17;;;;;;;14.98;4.63;;;4.10;68.40;;;;;;5031681;28;20416;-79
2022/02/05 02:30:00;;;;;;;12.32;4.35;;;4.10;68.90;;;;;;5002672;28;20389;-78
2022/02/05 02:32:27;;;;;;;9.90;4.13;;;4.20;67.80;;;;;;5018843;28;20408;-78
2022/02/05 02:34:58;;;;;;;10.70;3.80;;;4.20;67.10;;;;;;5028672;28;20399;-79
2022/02/05 02:37:32;;;;;;;11.55;4.07;;;4.10;68.70;;;;;;5008694;28;20400;-80
2022/02/05 02:42:26;;;;;;;12.63;5.18;;;4.20;67.10;;;;;;5033656;28;20401;-80
2022/02/05 02:44:51;;;;;;;10.88;4.40;;;4.10;68.10;;;;;;5036476;28;20373;-80
2022/02/05 02:47:17;;;;;;;11.03;4.17;;;4.20;67.80;;;;;;5010100;28;20968;-78
2022/02/05 02:57:41;;;;;;;12.20;3.90;;;4.10;67.60;;;;;;5035473;28;20403;-80
2022/02/05 03:00:11;;;;;;;12.35;4.05;;;4.10;66.80;;;;;;5021467;28;20429;-80
2022/02/05 03:02:37;;;;;;;8.05;3.90;;;4.20;66.90;;;;;;5035429;28;20407;-80
2022/02/05 03:05:02;;;;;;;13.32;3.75;;;4.20;66.00;;;;;;5026218;28;20434;-80
2022/02/05 03:07:28;;;;;;;13.30;4.10;;;4.20;65.70;;;;;;5039293;28;20447;-80
2022/02/05 03:09:55;;;;;;;14.73;3.60;;;4.10;67.70;;;;;;5021430;28;20436;-79
2022/02/05 03:12:21;;;;;;;15.43;4.10;;;4.10;67.90;;;;;;5017846;28;20390;-80
2022/02/05 03:14:48;;;;;;;14.25;4.40;;;4.00;68.20;;;;;;5019810;28;20400;-80
2022/02/05 03:17:19;;;;;;;13.05;3.97;;;4.10;66.70;;;;;;5034730;28;20404;-79
2022/02/05 03:19:47;;;;;;;13.52;4.32;;;4.00;67.40;;;;;;5015569;28;20395;-80
2022/02/05 03:22:15;;;;;;;9.35;4.25;;;4.20;66.30;;;;;;5019214;28;20775;-79
2022/02/05 03:24:40;;;;;;;8.80;3.35;;;4.20;65.10;;;;;;5017850;28;20381;-78
2022/02/05 03:27:07;;;;;;;12.27;3.73;;;4.30;65.20;;;;;;5017974;28;20479;-79
2022/02/05 03:29:35;;;;;;;9.38;3.88;;;4.20;65.70;;;;;;5000349;28;21294;-78
2022/02/05 03:32:00;;;;;;;10.13;4.38;;;4.30;64.90;;;;;;5005363;28;20409;-78
2022/02/05 03:34:26;;;;;;;14.17;4.10;;;4.30;64.80;;;;;;5015790;28;20961;-78
2022/02/05 03:36:51;;;;;;;10.87;4.00;;;4.40;63.10;;;;;;5015794;28;20402;-78
2022/02/05 03:39:17;;;;;;;6.73;3.87;;;4.30;64.30;;;;;;5016464;28;20454;-78
2022/02/05 03:41:42;;;;;;;12.30;3.87;;;4.30;63.80;;;;;;5015610;28;20874;-78
2022/02/05 03:44:08;;;;;;;14.47;4.67;;;4.30;64.20;;;;;;5016022;28;20467;-79
2022/02/05 03:46:34;;;;;;;19.33;4.00;;;4.30;64.00;;;;;;5022698;28;20430;-79
2022/02/05 03:48:59;;;;;;;9.20;3.92;;;4.10;65.50;;;;;;5027647;28;20400;-79
2022/02/05 03:51:25;;;;;;;10.90;4.78;;;4.10;66.70;;;;;;5028158;28;20407;-79
2022/02/05 03:53:51;;;;;;;13.73;4.40;;;4.00;66.80;;;;;;5026797;28;20450;-78
2022/02/05 03:56:17;;;;;;;17.00;4.38;;;4.10;66.50;;;;;;4999625;28;20487;-78
2022/02/05 03:58:43;;;;;;;13.70;3.85;;;4.00;66.90;;;;;;5000186;28;20421;-79
2022/02/05 04:01:09;;;;;;;9.35;3.75;;;4.00;66.90;;;;;;5010498;28;20399;-78
2022/02/05 04:03:38;;;;;;;12.27;3.80;;;4.00;66.80;;;;;;5002309;28;20397;-80
2022/02/05 04:06:03;;;;;;;11.18;3.95;;;4.00;67.10;;;;;;5019974;28;20397;-79
2022/02/05 04:08:29;;;;;;;15.55;3.60;;;4.00;67.10;;;;;;5002287;28;20419;-80
2022/02/05 04:11:05;;;;;;;10.95;3.30;;;4.00;66.50;;;;;;5033355;28;20383;-81
2022/02/05 04:16:23;;;;;;;11.02;3.80;;;4.10;65.80;;;;;;5035196;28;20399;-80
2022/02/05 04:18:51;;;;;;;8.30;3.38;;;4.10;64.40;;;;;;5033489;28;20381;-81
2022/02/05 04:21:17;;;;;;;10.77;3.65;;;4.20;63.50;;;;;;5034960;28;20376;-79
2022/02/05 04:23:42;;;;;;;11.98;3.40;;;4.20;63.90;;;;;;5028044;28;20432;-81
2022/02/05 04:26:08;;;;;;;12.75;3.95;;;4.30;61.80;;;;;;5036881;28;20420;-82
2022/02/05 04:28:35;;;;;;;10.97;3.10;;;4.40;60.60;;;;;;5031901;28;20406;-81
2022/02/05 04:31:01;;;;;;;12.95;4.00;;;4.50;60.30;;;;;;5010952;28;20421;-81
2022/02/05 04:33:26;;;;;;;9.07;3.20;;;4.50;59.80;;;;;;5022308;28;20588;-81
2022/02/05 04:35:52;;;;;;;15.50;4.20;;;4.40;61.20;;;;;;5032083;28;20381;-80
2022/02/05 04:38:19;;;;;;;10.25;3.60;;;4.40;61.30;;;;;;5032655;28;20400;-80
2022/02/05 04:41:12;;;;;;;11.82;3.72;;;4.30;61.10;;;;;;5034045;28;20488;-80
2022/02/05 04:54:16;;;;;;;11.70;4.20;;;4.00;64.40;;;;;;5027811;28;20397;-79
2022/02/05 04:56:57;;;;;;;12.95;3.70;;;4.00;64.60;;;;;;5015014;28;20390;-79
2022/02/05 04:59:58;;;;;;;11.77;3.67;;;3.90;65.60;;;;;;5001791;28;20397;-79
2022/02/05 05:05:00;;;;;;;17.43;3.93;;;3.70;68.70;;;;;;5011583;28;20395;-80
2022/02/05 05:10:27;;;;;;;15.70;4.17;;;3.70;70.80;;;;;;5025075;28;20412;-79
2022/02/05 05:20:52;;;;;;;10.80;4.07;;;3.70;68.30;;;;;;4973546;28;20403;-81
2022/02/05 05:23:18;;;;;;;10.13;3.50;;;3.70;67.70;;;;;;4967371;28;20435;-80
2022/02/05 05:25:43;;;;;;;13.90;3.90;;;3.70;67.40;;;;;;4994068;28;20403;-81
2022/02/05 05:28:09;;;;;;;10.53;4.17;;;3.90;66.60;;;;;;5016496;28;20511;-80
2022/02/05 05:30:34;;;;;;;11.63;4.00;;;3.80;66.20;;;;;;5011858;28;20395;-81
2022/02/05 05:33:00;;;;;;;18.48;4.10;;;3.80;67.30;;;;;;4997799;28;20877;-79
2022/02/05 05:35:26;;;;;;;11.15;4.05;;;3.80;66.60;;;;;;5021249;28;20432;-80
2022/02/05 05:37:52;;;;;;;17.40;4.10;;;3.80;66.90;;;;;;5016496;28;20385;-81
2022/02/05 05:40:18;;;;;;;13.27;3.90;;;3.80;66.00;;;;;;4999701;28;20400;-81
2022/02/05 05:42:49;;;;;;;9.68;4.65;;;3.90;66.50;;;;;;4998626;28;20532;-78
2022/02/05 05:53:04;;;;;;;11.88;3.80;;;4.30;60.30;;;;;;5012113;28;21079;-77
2022/02/05 05:55:30;;;;;;;12.25;3.90;;;4.20;62.00;;;;;;5014793;28;20395;-78
2022/02/05 05:57:56;;;;;;;9.00;3.40;;;4.30;60.10;;;;;;5017742;28;20812;-75
2022/02/05 06:00:22;;;;;;;15.68;3.72;;;4.30;60.30;;;;;;5023303;28;20420;-75
2022/02/05 06:02:47;;;;;;;12.45;3.80;;;4.40;58.70;;;;;;5018829;28;20474;-76
2022/02/05 06:05:13;;;;;;;10.75;3.80;;;4.50;58.40;;;;;;5007789;28;20408;-81
2022/02/05 06:07:39;;;;;;;8.73;3.00;;;4.40;58.50;;;;;;5038314;28;20423;-79
2022/02/05 06:10:05;;;;;;;15.48;4.20;;;4.50;57.80;;;;;;5034417;28;20408;-77
2022/02/05 06:12:31;;;;;;;14.55;4.07;;;4.50;57.40;;;;;;5018752;28;20389;-78
2022/02/05 06:14:58;;;;;;;12.80;3.53;;;4.50;57.80;;;;;;5020063;28;20428;-77
2022/02/05 06:17:25;;;;;;;12.30;3.80;;;4.60;57.70;;;;;;5020555;28;20455;-77
2022/02/05 06:19:52;;;;;;;9.77;3.67;;;4.60;56.50;;;;;;5011193;28;20874;-77
2022/02/05 06:22:17;;;;;;;16.00;4.20;;;4.60;56.90;;;;;;5004526;28;20699;-78
2022/02/05 06:24:43;;;;;;;14.50;4.07;;;4.60;57.30;;;;;;5020770;28;20385;-77
2022/02/05 06:27:09;;;;;;;13.93;4.10;;;4.60;56.90;;;;;;5020901;28;20497;-77
2022/02/05 06:29:34;;;;;;;11.60;3.83;;;4.70;55.90;;;;;;5018735;28;20799;-77
2022/02/05 06:32:01;;;;;;;14.20;3.72;;;4.60;56.20;;;;;;5018400;28;20404;-78
2022/02/05 06:34:27;;;;;;;14.88;4.20;;;4.60;57.10;;;;;;5016787;28;20865;-77
2022/02/05 06:36:53;;;;;;;8.20;3.60;;;4.50;57.60;;;;;;5014077;28;20384;-77
2022/02/05 06:39:20;;;;;;;13.30;4.25;;;4.50;57.80;;;;;;5014095;28;20897;-77
2022/02/05 06:41:46;;;;;;;9.38;4.00;;;4.60;57.70;;;;;;4996194;28;20470;-78
2022/02/05 06:44:13;;;;;;;6.33;3.50;;;4.60;57.40;;;;;;5019045;28;20396;-80
2022/02/05 06:46:40;;;;;;;12.38;3.70;;;4.70;57.10;;;;;;5034925;28;20500;-79
2022/02/05 06:49:06;;;;;;;12.95;3.40;;;4.70;57.00;;;;;;5029288;28;20393;-79
2022/02/05 06:51:33;;;;;;;14.48;3.83;;;4.60;57.00;;;;;;5034052;28;20421;-79
2022/02/05 06:53:59;;;;;;;9.90;4.10;;;4.70;56.30;;;;;;5037751;28;20404;-80
2022/02/05 06:56:25;;;;;;;13.30;4.50;;;4.70;57.30;;;;;;5037732;28;20397;-79
2022/02/05 06:58:50;;;;;;;13.35;3.83;;;4.70;57.00;;;;;;5032170;28;20399;-80
2022/02/05 07:01:16;;;;;;;13.50;3.50;;;4.70;55.50;;;;;;5032401;28;20699;-81
2022/02/05 07:03:41;;;;;;;10.43;4.00;;;4.60;55.80;;;;;;5036054;28;20410;-81
2022/02/05 07:06:07;;;;;;;13.17;3.87;;;4.50;57.20;;;;;;5034751;28;20392;-79
2022/02/05 07:08:33;;;;;;;13.60;3.90;;;4.40;59.00;;;;;;5019956;28;20420;-81
2022/02/05 07:11:00;;;;;;;14.57;4.50;;;4.20;60.20;;;;;;5019590;28;20405;-81
2022/02/05 07:13:26;;;;;;;12.88;4.50;;;4.10;60.80;;;;;;5033772;28;20396;-81
2022/02/05 07:16:06;;;;;;;14.23;3.93;;;4.10;62.10;;;;;;5005741;28;20420;-82
2022/02/05 07:21:21;;;;;;;15.38;4.43;;;4.00;62.10;;;;;;5033571;28;20420;-81
2022/02/05 07:29:18;;;;;;;13.98;4.03;;;3.90;66.30;;;;;;5031028;28;20408;-81
2022/02/05 07:31:51;;;;;;;17.03;3.83;;;3.80;67.00;;;;;;5009564;28;20417;-82
2022/02/05 07:34:20;;;;;;;20.35;4.15;;;3.90;66.00;;;;;;5012162;28;20440;-81
2022/02/05 07:36:48;;;;;;;15.93;4.30;;;3.90;65.50;;;;;;5013962;28;20394;-80
2022/02/05 07:39:14;;;;;;;11.40;4.20;;;3.80;67.30;;;;;;5011802;28;20410;-81
2022/02/05 07:41:41;;;;;;;14.98;4.15;;;3.70;69.40;;;;;;5010688;28;20408;-80
2022/02/05 07:44:13;;;;;;;10.73;4.20;;;3.90;67.30;;;;;;5044068;28;20428;-80
2022/02/05 07:47:00;;;;;;;13.73;4.97;;;3.90;66.40;;;;;;5027184;28;20396;-81
2022/02/05 07:49:28;;;;;;;14.45;4.40;;;3.80;68.50;;;;;;5034386;28;20460;-80
2022/02/05 07:51:56;;;;;;;17.30;4.33;;;4.00;67.10;;;;;;5034081;28;20448;-82
2022/02/05 07:57:47;;;;;;;13.27;4.00;;;4.00;68.00;;;;;;5032603;28;20392;-78
2022/02/05 08:00:13;;;;;;;10.90;4.25;;;4.10;66.10;;;;;;5029785;28;20385;-79
2022/02/05 08:02:38;;;;;;;15.80;4.78;;;4.10;66.10;;;;;;5011940;28;20857;-78
2022/02/05 08:05:04;;;;;;;9.48;4.32;;;4.20;64.60;;;;;;5024832;28;20480;-79
2022/02/05 08:07:30;;;;;;;16.00;4.70;;;4.00;67.10;;;;;;5019789;28;20409;-78
2022/02/05 08:10:04;;;;;;;17.80;4.43;;;4.10;66.30;;;;;;5025259;28;20395;-79
2022/02/05 08:12:32;;;;;;;19.17;4.63;;;4.10;67.60;;;;;;5020967;28;20397;-79
2022/02/05 08:15:00;;;;;;;13.65;5.10;;;4.10;66.50;;;;;;5029027;28;20389;-79
2022/02/05 08:17:31;;;;;;;18.35;4.63;;;4.10;68.70;;;;;;5021107;28;20485;-77
2022/02/05 08:19:57;;;;;;;17.30;4.32;;;4.30;66.20;;;;;;5015000;28;20440;-78
2022/02/05 08:22:22;;;;;;;15.23;3.93;;;4.50;63.30;;;;;;5014816;28;20409;-78
2022/02/05 08:24:48;;;;;;;14.33;3.80;;;4.60;62.50;;;;;;5014209;28;20897;-78
2022/02/05 08:27:14;;;;;;;13.50;4.35;;;4.80;59.00;;;;;;5020644;28;20408;-76
2022/02/05 08:29:56;;;;;;;8.93;3.90;;;4.70;60.00;;;;;;5018715;28;20917;-78
2022/02/05 08:32:25;;;;;;;15.25;4.75;;;4.80;59.10;;;;;;5010352;28;20407;-77
2022/02/05 08:34:50;;;;;;;14.90;4.95;;;4.70;60.90;;;;;;5011520;28;20940;-78
2022/02/05 08:37:16;;;;;;;14.03;4.40;;;4.80;59.00;;;;;;4998920;28;20408;-77
2022/02/05 08:39:42;;;;;;;12.60;4.50;;;4.80;60.20;;;;;;5014749;28;20462;-77
2022/02/05 08:42:08;;;;;;;12.90;4.30;;;4.90;59.30;;;;;;5023867;28;20762;-77
2022/02/05 08:44:34;;;;;;;15.05;4.63;;;4.90;58.70;;;;;;5006498;28;20400;-77
2022/02/05 08:47:01;;;;;;;19.52;4.70;;;5.00;57.70;;;;;;5025457;28;20443;-77
2022/02/05 08:49:28;;;;;;;9.13;4.00;;;5.00;57.50;;;;;;5020341;28;20401;-77
2022/02/05 08:51:57;;;;;;;15.88;3.92;;;5.00;57.80;;;;;;5019390;28;20427;-78
2022/02/05 08:54:23;;;;;;;16.30;5.20;;;5.00;57.10;;;;;;5026235;28;20472;-78
2022/02/05 08:56:52;;;;;;;12.63;3.80;;;5.00;57.50;;;;;;5018724;28;20399;-78
2022/02/05 08:59:18;;;;;;;16.30;4.00;;;5.10;56.80;;;;;;5023340;28;20402;-78
2022/02/05 09:04:25;;;;;;;13.55;3.90;;;5.20;56.70;;;;;;5019572;28;20411;-79
2022/02/05 09:06:56;;;;;;;12.48;4.32;;;5.30;55.30;;;;;;5011655;28;20405;-80
2022/02/05 09:09:34;;;;;;;12.43;4.28;;;5.30;54.70;;;;;;4995246;28;20442;-78
2022/02/05 09:12:18;;;;;;;17.15;4.70;;;5.30;55.10;;;;;;5024729;28;20407;-78
2022/02/05 09:14:48;;;;;;;13.40;4.50;;;5.40;54.60;;;;;;5025289;28;20897;-80
2022/02/05 09:17:14;;;;;;;10.27;4.18;;;5.40;55.30;;;;;;5029200;28;20430;-79
2022/02/05 09:19:41;;;;;;;13.77;4.57;;;5.50;54.00;;;;;;5033816;28;20406;-82
2022/02/05 09:22:07;;;;;;;16.23;4.68;;;5.60;53.50;;;;;;5025468;28;20735;-77
2022/02/05 09:24:36;;;;;;;13.50;4.37;;;5.70;53.40;;;;;;5008740;28;20406;-77
2022/02/05 09:27:05;;;;;;;15.10;4.45;;;5.70;52.60;;;;;;5020642;28;20940;-78
2022/02/05 09:29:37;;;;;;;17.90;4.90;;;5.90;51.90;;;;;;5021276;28;20393;-78
2022/02/05 09:32:03;;;;;;;12.30;4.60;;;6.40;49.10;;;;;;5029903;28;20767;-77
2022/02/05 09:34:29;;;;;;;13.93;4.65;;;7.00;44.60;;;;;;5030511;28;20745;-77
2022/02/05 09:36:54;;;;;;;13.27;4.10;;;7.00;43.10;;;;;;5029218;28;20433;-77
2022/02/05 09:39:20;;;;;;;13.10;4.22;;;6.80;44.50;;;;;;5023282;28;20397;-76
2022/02/05 09:41:46;;;;;;;15.45;4.40;;;6.70;45.30;;;;;;5024228;28;20392;-78
2022/02/05 09:44:12;;;;;;;12.97;4.50;;;6.50;46.10;;;;;;5028218;28;20423;-78
2022/02/05 09:46:38;;;;;;;15.80;4.47;;;6.40;47.30;;;;;;5022099;28;20765;-78
2022/02/05 09:49:05;;;;;;;11.15;4.32;;;6.30;47.60;;;;;;5029590;28;20403;-78
2022/02/05 09:51:35;;;;;;;11.55;4.93;;;6.30;48.30;;;;;;5016923;28;20389;-77
2022/02/05 09:54:03;;;;;;;10.60;3.60;;;6.30;48.30;;;;;;5001338;28;21007;-78
2022/02/05 09:56:32;;;;;;;13.25;4.05;;;6.30;48.40;;;;;;5028141;28;20488;-78
2022/02/05 09:58:58;;;;;;;12.75;5.32;;;6.30;47.70;;;;;;5012041;28;20402;-77
2022/02/05 10:01:42;;;;;;;18.92;4.70;;;6.40;49.20;;;;;;5023302;28;20405;-77
2022/02/05 10:04:12;;;;;;;13.68;5.15;;;6.40;47.50;;;;;;5021230;28;20398;-78
2022/02/05 10:06:47;;;;;;;15.90;4.90;;;6.50;47.20;;;;;;5023537;28;20400;-78
2022/02/05 10:09:15;;;;;;;14.18;5.03;;;6.50;47.70;;;;;;5025468;28;20429;-77
2022/02/05 10:11:57;;;;;;;19.60;4.97;;;6.60;47.70;;;;;;5013793;28;20892;-76
2022/02/05 10:14:24;;;;;;;14.50;4.00;;;6.70;46.50;;;;;;5013074;28;20845;-78
2022/02/05 10:16:54;;;;;;;15.25;4.80;;;6.70;45.90;;;;;;5015265;28;20401;-79
2022/02/05 10:19:21;;;;;;;21.93;4.70;;;6.80;45.40;;;;;;5041427;28;20454;-78
2022/02/05 10:22:01;;;;;;;10.68;4.20;;;6.90;46.20;;;;;;5037983;28;20412;-78
2022/02/05 10:24:29;;;;;;;12.95;4.13;;;6.90;45.80;;;;;;5010238;28;20390;-79
2022/02/05 10:26:55;;;;;;;13.35;4.85;;;6.90;43.90;;;;;;5009160;28;20483;-78
2022/02/05 10:29:21;;;;;;;10.20;4.10;;;7.00;43.70;;;;;;5035848;28;20399;-78
2022/02/05 10:31:53;;;;;;;9.13;3.92;;;7.00;42.80;;;;;;5030156;28;20412;-79
2022/02/05 10:34:19;;;;;;;18.90;4.40;;;7.00;42.70;;;;;;5032565;28;20410;-79
2022/02/05 10:36:46;;;;;;;19.50;4.77;;;7.00;42.30;;;;;;5018805;28;20451;-77
2022/02/05 10:39:28;;;;;;;15.23;4.13;;;7.10;42.80;;;;;;5021836;28;20471;-78
2022/02/05 10:44:38;;;;;;;15.77;5.03;;;6.90;44.10;;;;;;5025583;28;20423;-77
2022/02/05 10:47:04;;;;;;;17.07;4.37;;;7.10;44.20;;;;;;5019704;28;20416;-77
2022/02/05 10:49:46;;;;;;;13.30;4.10;;;7.20;42.50;;;;;;5017054;28;20466;-78
2022/02/05 10:52:26;;;;;;;15.95;4.40;;;7.40;41.40;;;;;;5017626;28;20397;-78
2022/02/05 10:55:20;;;;;;;14.30;4.00;;;7.40;40.70;;;;;;5027412;28;20894;-77
2022/02/05 11:08:05;;;;;;;13.50;4.60;;;7.40;39.60;;;;;;5017957;28;20416;-77
2022/02/05 11:18:58;;;;;;;15.90;4.35;;;7.80;39.20;;;;;;5029248;28;20423;-77
2022/02/05 11:21:26;;;;;;;19.15;4.68;;;7.90;38.10;;;;;;5005384;28;20404;-78
2022/02/05 11:23:56;;;;;;;11.70;4.30;;;8.10;37.30;;;;;;5027729;28;20393;-77
2022/02/05 11:26:23;;;;;;;21.13;5.50;;;8.30;36.00;;;;;;5022006;28;20424;-78
2022/02/05 11:28:51;;;;;;;17.77;5.32;;;8.30;36.40;;;;;;5028738;28;20439;-78
2022/02/05 11:31:29;;;;;;;14.13;4.50;;;8.50;36.00;;;;;;5029599;28;20404;-78
2022/02/05 11:34:14;;;;;;;15.35;4.53;;;8.80;34.80;;;;;;5015098;28;20427;-78
2022/02/05 11:36:44;;;;;;;19.25;5.47;;;9.00;33.80;;;;;;5022643;28;20965;-78
2022/02/05 11:39:16;;;;;;;16.58;5.20;;;8.90;33.70;;;;;;5030805;28;20517;-77
2022/02/05 11:41:44;;;;;;;12.10;4.23;;;8.80;34.40;;;;;;5026323;28;20404;-77
2022/02/05 11:44:37;;;;;;;21.27;5.22;;;8.90;33.50;;;;;;5023821;28;20941;-78
2022/02/05 11:47:09;;;;;;;15.57;4.93;;;8.90;33.50;;;;;;5023458;28;20496;-78
2022/02/05 11:49:53;;;;;;;14.17;4.40;;;9.20;32.40;;;;;;5021060;28;20499;-77
2022/02/05 11:52:37;;;;;;;15.27;4.40;;;9.40;31.40;;;;;;5012178;28;20902;-77
2022/02/05 11:55:05;;;;;;;17.53;4.90;;;9.50;31.60;;;;;;5004764;28;20443;-78
2022/02/05 11:57:44;;;;;;;20.85;4.70;;;9.50;29.60;;;;;;5029405;28;20772;-78
2022/02/05 12:00:10;;;;;;;14.57;4.10;;;9.60;29.40;;;;;;5017139;28;20582;-78
2022/02/05 12:02:42;;;;;;;19.92;4.82;;;9.60;29.30;;;;;;5019019;28;20405;-77
2022/02/05 12:05:16;;;;;;;15.75;4.28;;;9.50;29.70;;;;;;5029718;28;20391;-77
2022/02/05 12:08:20;;;;;;;13.07;4.13;;;9.30;30.30;;;;;;5033871;28;20406;-78
2022/02/05 12:10:52;;;;;;;15.52;4.38;;;9.00;31.00;;;;;;5017200;28;20462;-78
2022/02/05 12:13:26;;;;;;;16.77;4.88;;;8.90;31.70;;;;;;5016564;28;20398;-79
2022/02/05 12:15:55;;;;;;;15.20;3.90;;;9.10;31.60;;;;;;5007684;28;20415;-77
2022/02/05 12:18:26;;;;;;;15.60;5.00;;;9.20;30.40;;;;;;5009691;28;20803;-77
2022/02/05 12:21:10;;;;;;;14.27;4.82;;;9.20;30.10;;;;;;5028099;28;20403;-78
2022/02/05 12:26:17;;;;;;;14.23;4.70;;;9.00;30.00;;;;;;5025665;28;20537;-79
2022/02/05 12:29:27;;;;;;;17.80;4.53;;;9.00;30.90;;;;;;5014482;28;20465;-77
2022/02/05 12:31:56;;;;;;;13.23;4.22;;;9.20;29.50;;;;;;4999504;28;20407;-78
2022/02/05 12:34:22;;;;;;;18.08;4.70;;;9.30;29.80;;;;;;5029705;28;20437;-79
2022/02/05 12:36:53;;;;;;;9.80;4.00;;;9.30;29.50;;;;;;5007473;28;20396;-78
2022/02/05 12:39:33;;;;;;;9.90;4.40;;;9.30;28.10;;;;;;5007672;28;20470;-78
2022/02/05 12:42:06;;;;;;;11.85;4.03;;;9.20;28.70;;;;;;5023827;28;20395;-78
2022/02/05 12:44:35;;;;;;;16.40;4.50;;;9.20;28.70;;;;;;4999685;28;20996;-77
2022/02/05 12:47:12;;;;;;;13.20;4.90;;;9.10;29.00;;;;;;5028815;28;20418;-77
2022/02/05 12:49:54;;;;;;;12.33;4.30;;;9.20;29.20;;;;;;5000388;28;20471;-77
2022/02/05 12:52:29;;;;;;;14.00;4.70;;;9.30;28.10;;;;;;5029217;28;20397;-78
2022/02/05 12:54:58;;;;;;;13.98;3.90;;;9.40;28.40;;;;;;5019661;28;20766;-77
2022/02/05 12:57:28;;;;;;;16.05;4.75;;;9.30;27.60;;;;;;5019325;28;20464;-78
2022/02/05 12:59:54;;;;;;;13.05;3.90;;;9.10;27.20;;;;;;5029519;28;20490;-79
2022/02/05 13:02:23;;;;;;;15.30;4.17;;;9.20;27.90;;;;;;5004152;28;20446;-78
2022/02/05 13:04:51;;;;;;;14.40;3.90;;;9.20;27.70;;;;;;4998623;28;20466;-79
2022/02/05 13:07:18;;;;;;;13.27;3.75;;;9.30;26.70;;;;;;5014382;28;20456;-78
2022/02/05 13:10:03;;;;;;;12.35;3.97;;;9.30;27.80;;;;;;5014853;28;20397;-78
2022/02/05 13:12:38;;;;;;;9.80;3.90;;;9.30;27.00;;;;;;4999375;28;20536;-78
2022/02/05 13:15:24;;;;;;;16.67;3.10;;;9.50;26.20;;;;;;5018930;28;20911;-77
2022/02/05 13:34:13;;;;;;;12.70;3.03;;;9.00;25.50;;;;;;5034111;28;20424;-79
2022/02/05 13:36:46;;;;;;;11.07;3.35;;;8.80;26.30;;;;;;5030514;28;20517;-80
2022/02/05 13:39:31;;;;;;;9.63;3.10;;;8.80;26.00;;;;;;5027927;28;20422;-78
2022/02/05 13:42:09;;;;;;;6.18;3.40;;;8.70;26.50;;;;;;5024443;28;20416;-79
2022/02/05 13:44:42;;;;;;;8.63;3.20;;;8.70;26.50;;;;;;5024237;28;20445;-78
2022/02/05 13:47:17;;;;;;;7.95;3.08;;;8.80;26.00;;;;;;5024820;28;20424;-80
2022/02/05 13:49:57;;;;;;;10.93;3.22;;;8.80;26.40;;;;;;5026128;28;20396;-78
2022/02/05 13:52:23;;;;;;;11.15;3.28;;;8.70;26.20;;;;;;5025688;28;20392;-80
2022/02/05 13:54:48;;;;;;;10.65;3.50;;;8.70;26.60;;;;;;5023658;28;20423;-79
2022/02/05 13:57:15;;;;;;;10.75;4.00;;;8.60;27.20;;;;;;5018897;28;20746;-80
2022/02/05 13:59:41;;;;;;;10.80;3.25;;;8.50;27.50;;;;;;5002913;28;20408;-78
2022/02/05 14:02:14;;;;;;;14.70;3.57;;;8.60;27.70;;;;;;4996654;28;20402;-77
2022/02/05 14:04:39;;;;;;;12.03;4.10;;;8.50;28.10;;;;;;4994866;28;20477;-78
2022/02/05 14:07:05;;;;;;;10.25;3.80;;;8.60;27.70;;;;;;4993221;28;20437;-77
2022/02/05 14:09:33;;;;;;;9.95;3.90;;;8.60;27.80;;;;;;5020801;28;20400;-78
2022/02/05 14:12:18;;;;;;;16.38;4.47;;;8.70;27.90;;;;;;5020877;28;20428;-76
2022/02/05 14:14:44;;;;;;;11.15;4.50;;;8.90;27.70;;;;;;5015523;28;20392;-77
2022/02/05 14:17:17;;;;;;;13.50;4.70;;;8.90;27.60;;;;;;5015401;28;20882;-77
2022/02/05 14:19:47;;;;;;;16.05;4.70;;;8.80;27.80;;;;;;5015024;28;20392;-77
2022/02/05 14:22:29;;;;;;;15.88;4.85;;;8.70;27.70;;;;;;4997611;28;20837;-78
2022/02/05 14:25:28;;;;;;;13.73;4.55;;;8.80;27.60;;;;;;5015319;28;20427;-77
2022/02/05 14:28:50;;;;;;;13.73;5.28;;;8.90;26.20;;;;;;4995341;28;20395;-77
2022/02/05 14:31:11;;;;;;;10.25;4.35;;;9.00;26.30;;;;;;4998774;28;20461;-77
2022/02/05 14:33:49;;;;;;;13.88;4.38;;;9.50;26.10;;;;;;5003958;28;20445;-77
2022/02/05 14:42:08;;;;;;;10.40;3.08;;;10.00;22.70;;;;;;5036116;28;20915;-76
2022/02/05 14:44:37;;;;;;;8.70;3.00;;;10.10;20.50;;;;;;5018733;28;20907;-79
2022/02/05 14:47:07;;;;;;;11.73;3.20;;;9.70;21.50;;;;;;5029154;28;20828;-81
2022/02/05 14:49:33;;;;;;;8.95;3.00;;;9.60;22.50;;;;;;5014777;28;20439;-82
2022/02/05 14:52:01;;;;;;;9.50;2.67;;;9.50;22.60;;;;;;5015201;28;20373;-81
2022/02/05 14:54:33;;;;;;;7.85;2.47;;;9.30;22.40;;;;;;5031762;28;20385;-82
2022/02/05 14:56:58;;;;;;;6.72;2.45;;;9.20;23.30;;;;;;5029862;28;20396;-82
2022/02/05 14:59:27;;;;;;;11.23;2.70;;;9.00;23.80;;;;;;5031777;28;20479;-82
2022/02/05 15:01:53;;;;;;;6.78;2.63;;;9.00;24.20;;;;;;5013556;28;20404;-82
2022/02/05 15:04:19;;;;;;;12.10;3.10;;;9.00;23.50;;;;;;5026133;28;20850;-80
2022/02/05 15:06:47;;;;;;;7.07;2.95;;;8.90;24.00;;;;;;5011269;28;20406;-80
2022/02/05 15:09:18;;;;;;;11.07;2.70;;;8.90;24.00;;;;;;5009824;28;20454;-82
2022/02/05 15:11:43;;;;;;;10.80;2.70;;;8.80;24.50;;;;;;4994245;28;20398;-81
2022/02/05 15:14:09;;;;;;;18.63;3.55;;;8.90;24.50;;;;;;5032729;28;20893;-82
2022/02/05 15:16:38;;;;;;;9.13;3.20;;;8.90;24.50;;;;;;5016047;28;20419;-80
2022/02/05 15:19:06;;;;;;;8.07;2.60;;;8.90;24.10;;;;;;5034141;28;20381;-81
2022/02/05 15:21:37;;;;;;;13.65;2.50;;;8.80;24.10;;;;;;5030719;28;20425;-80
2022/02/05 15:24:07;;;;;;;13.75;3.13;;;8.80;23.90;;;;;;5033337;28;20387;-81
2022/02/05 15:26:34;;;;;;;8.55;2.83;;;8.70;24.90;;;;;;5053845;28;20386;-80
2022/02/05 15:29:01;;;;;;;9.63;2.92;;;8.80;24.60;;;;;;5039623;28;20482;-80
2022/02/05 15:31:27;;;;;;;11.10;2.72;;;8.90;24.30;;;;;;5027646;28;20426;-80
2022/02/05 15:33:58;;;;;;;10.93;3.28;;;9.20;23.50;;;;;;5047097;28;20476;-80
2022/02/05 15:36:31;;;;;;;14.18;2.78;;;9.30;23.30;;;;;;5032586;28;20368;-80
2022/02/05 15:44:28;;;;;;;9.82;2.83;;;9.10;23.80;;;;;;5035997;28;20464;-81
2022/02/05 15:46:54;;;;;;;13.57;2.97;;;8.90;24.80;;;;;;5027573;28;20397;-81
2022/02/05 15:49:19;;;;;;;8.10;2.60;;;8.70;24.80;;;;;;5028289;28;20414;-81
2022/02/05 15:51:45;;;;;;;8.65;2.70;;;8.70;25.40;;;;;;5035519;28;20464;-81
2022/02/05 15:54:13;;;;;;;10.18;3.00;;;8.60;25.50;;;;;;5033276;28;20435;-82
2022/02/05 15:59:15;;;;;;;7.70;2.88;;;8.60;25.60;;;;;;5017139;28;20393;-80
2022/02/05 16:01:40;;;;;;;8.55;3.00;;;8.60;25.70;;;;;;5032831;28;20435;-80
2022/02/05 16:04:06;;;;;;;11.13;3.10;;;8.60;26.00;;;;;;5045478;28;20390;-79
2022/02/05 16:06:36;;;;;;;10.00;3.05;;;8.50;26.30;;;;;;5034263;28;20494;-81
2022/02/05 16:09:03;;;;;;;8.40;3.05;;;8.50;27.00;;;;;;5040360;28;20429;-81
2022/02/05 16:11:29;;;;;;;10.35;3.20;;;8.50;26.50;;;;;;5038953;28;20395;-81